sensor_id;sensor_type;location;lat;lon;timestamp;pressure;altitude;pressure_sealevel;temperature;humidity
10948;BME280;5526;42.070;24.752;2023-05-02T00:00:31;99420.03;;;12.61;100.00
10948;BME280;5526;42.070;24.752;2023-05-02T00:02:59;99414.75;;;12.61;100.00
10948;BME280;5526;42.070;24.752;2023-05-02T00:05:28;99413.66;;;12.52;100.00
10948;BME280;5526;42.070;24.752;2023-05-02T00:07:55;99429.44;;;12.47;100.00
10948;BME280;5526;42.070;24.752;2023-05-02T00:10:22;99425.69;;;12.38;100.00
10948;BME280;5526;42.070;24.752;2023-05-02T00:12:49;99414.88;;;12.35;100.00
10948;BME280;5526;42.070;24.752;2023-05-02T00:15:16;99414.34;;;12.38;100.00
10948;BME280;5526;42.070;24.752;2023-05-02T00:17:43;99418.25;;;12.30;100.00
10948;BME280;5526;42.070;24.752;2023-05-02T00:20:11;99422.91;;;12.18;100.00
10948;BME280;5526;42.070;24.752;2023-05-02T00:22:40;99418.69;;;12.17;100.00
10948;BME280;5526;42.070;24.752;2023-05-02T00:25:08;99425.78;;;12.12;100.00
10948;BME280;5526;42.070;24.752;2023-05-02T00:27:40;99424.13;;;12.06;100.00
10948;BME280;5526;42.070;24.752;2023-05-02T00:30:08;99427.03;;;12.04;100.00
10948;BME280;5526;42.070;24.752;2023-05-02T00:32:35;99426.00;;;12.05;100.00
10948;BME280;5526;42.070;24.752;2023-05-02T00:35:03;99429.97;;;12.08;100.00
10948;BME280;5526;42.070;24.752;2023-05-02T00:37:30;99438.09;;;12.01;100.00
10948;BME280;5526;42.070;24.752;2023-05-02T00:39:58;99427.41;;;11.86;100.00
10948;BME280;5526;42.070;24.752;2023-05-02T00:42:26;99437.91;;;11.81;100.00
10948;BME280;5526;42.070;24.752;2023-05-02T00:44:56;99434.25;;;11.82;100.00
10948;BME280;5526;42.070;24.752;2023-05-02T00:47:23;99445.06;;;11.86;100.00
10948;BME280;5526;42.070;24.752;2023-05-02T00:49:50;99450.34;;;11.86;100.00
10948;BME280;5526;42.070;24.752;2023-05-02T00:52:17;99433.41;;;11.77;100.00
10948;BME280;5526;42.070;24.752;2023-05-02T00:54:46;99439.16;;;11.74;100.00
10948;BME280;5526;42.070;24.752;2023-05-02T00:57:14;99448.28;;;11.88;100.00
10948;BME280;5526;42.070;24.752;2023-05-02T00:59:42;99441.59;;;11.80;100.00
10948;BME280;5526;42.070;24.752;2023-05-02T01:02:21;99448.72;;;11.80;100.00
10948;BME280;5526;42.070;24.752;2023-05-02T01:04:59;99444.53;;;11.84;100.00
10948;BME280;5526;42.070;24.752;2023-05-02T01:07:42;99450.19;;;11.71;100.00
10948;BME280;5526;42.070;24.752;2023-05-02T01:10:20;99450.25;;;11.76;100.00
10948;BME280;5526;42.070;24.752;2023-05-02T01:12:54;99445.47;;;11.73;100.00
10948;BME280;5526;42.070;24.752;2023-05-02T01:15:25;99450.44;;;11.69;100.00
10948;BME280;5526;42.070;24.752;2023-05-02T01:17:54;99456.28;;;11.71;100.00
10948;BME280;5526;42.070;24.752;2023-05-02T01:20:25;99453.41;;;11.73;100.00
10948;BME280;5526;42.070;24.752;2023-05-02T01:22:58;99451.28;;;11.75;100.00
10948;BME280;5526;42.070;24.752;2023-05-02T01:25:32;99455.72;;;11.69;100.00
10948;BME280;5526;42.070;24.752;2023-05-02T01:28:13;99448.84;;;11.68;100.00
10948;BME280;5526;42.070;24.752;2023-05-02T01:30:46;99457.81;;;11.67;100.00
10948;BME280;5526;42.070;24.752;2023-05-02T01:33:16;99452.00;;;11.65;100.00
10948;BME280;5526;42.070;24.752;2023-05-02T01:35:46;99448.56;;;11.65;100.00
10948;BME280;5526;42.070;24.752;2023-05-02T01:38:17;99452.59;;;11.72;100.00
10948;BME280;5526;42.070;24.752;2023-05-02T01:40:46;99451.78;;;11.72;100.00
10948;BME280;5526;42.070;24.752;2023-05-02T01:43:16;99450.75;;;11.73;100.00
10948;BME280;5526;42.070;24.752;2023-05-02T01:45:48;99458.09;;;11.71;100.00
10948;BME280;5526;42.070;24.752;2023-05-02T01:48:16;99453.16;;;11.74;100.00
10948;BME280;5526;42.070;24.752;2023-05-02T01:50:46;99453.44;;;11.78;100.00
10948;BME280;5526;42.070;24.752;2023-05-02T01:53:15;99455.59;;;11.81;100.00
10948;BME280;5526;42.070;24.752;2023-05-02T01:55:44;99459.50;;;11.78;100.00
10948;BME280;5526;42.070;24.752;2023-05-02T01:58:13;99453.63;;;11.71;100.00
10948;BME280;5526;42.070;24.752;2023-05-02T02:00:41;99459.19;;;11.75;100.00
10948;BME280;5526;42.070;24.752;2023-05-02T02:03:12;99461.34;;;11.78;100.00
10948;BME280;5526;42.070;24.752;2023-05-02T02:05:40;99460.75;;;11.71;100.00
10948;BME280;5526;42.070;24.752;2023-05-02T02:08:08;99457.06;;;11.72;100.00
10948;BME280;5526;42.070;24.752;2023-05-02T02:10:39;99469.22;;;11.73;100.00
10948;BME280;5526;42.070;24.752;2023-05-02T02:13:13;99458.03;;;11.61;100.00
10948;BME280;5526;42.070;24.752;2023-05-02T02:15:46;99456.97;;;11.62;100.00
10948;BME280;5526;42.070;24.752;2023-05-02T02:18:19;99462.25;;;11.62;100.00
10948;BME280;5526;42.070;24.752;2023-05-02T02:20:49;99460.94;;;11.64;100.00
10948;BME280;5526;42.070;24.752;2023-05-02T02:23:18;99463.34;;;11.66;100.00
10948;BME280;5526;42.070;24.752;2023-05-02T02:25:47;99457.25;;;11.65;100.00
10948;BME280;5526;42.070;24.752;2023-05-02T02:28:16;99463.09;;;11.67;100.00
10948;BME280;5526;42.070;24.752;2023-05-02T02:30:43;99464.41;;;11.65;100.00
10948;BME280;5526;42.070;24.752;2023-05-02T02:33:10;99468.63;;;11.66;100.00
10948;BME280;5526;42.070;24.752;2023-05-02T02:35:42;99466.22;;;11.64;100.00
10948;BME280;5526;42.070;24.752;2023-05-02T02:38:13;99463.28;;;11.61;100.00
10948;BME280;5526;42.070;24.752;2023-05-02T02:40:48;99471.38;;;11.54;100.00
10948;BME280;5526;42.070;24.752;2023-05-02T02:43:25;99465.72;;;11.46;100.00
10948;BME280;5526;42.070;24.752;2023-05-02T02:45:59;99460.41;;;11.41;100.00
10948;BME280;5526;42.070;24.752;2023-05-02T02:48:33;99465.69;;;11.41;100.00
10948;BME280;5526;42.070;24.752;2023-05-02T02:51:08;99469.53;;;11.33;100.00
10948;BME280;5526;42.070;24.752;2023-05-02T02:53:48;99467.16;;;11.32;100.00
10948;BME280;5526;42.070;24.752;2023-05-02T02:56:25;99464.47;;;11.27;100.00
10948;BME280;5526;42.070;24.752;2023-05-02T02:58:56;99475.84;;;11.32;100.00
10948;BME280;5526;42.070;24.752;2023-05-02T03:01:30;99485.09;;;11.35;100.00
10948;BME280;5526;42.070;24.752;2023-05-02T03:03:58;99478.25;;;11.34;100.00
10948;BME280;5526;42.070;24.752;2023-05-02T03:06:29;99491.22;;;11.40;100.00
10948;BME280;5526;42.070;24.752;2023-05-02T03:08:56;99478.88;;;11.41;100.00
10948;BME280;5526;42.070;24.752;2023-05-02T03:11:23;99483.56;;;11.39;100.00
10948;BME280;5526;42.070;24.752;2023-05-02T03:13:50;99485.41;;;11.38;100.00
10948;BME280;5526;42.070;24.752;2023-05-02T03:16:31;99499.09;;;11.35;100.00
10948;BME280;5526;42.070;24.752;2023-05-02T03:18:59;99498.75;;;11.32;100.00
10948;BME280;5526;42.070;24.752;2023-05-02T03:21:28;99498.00;;;11.31;100.00
10948;BME280;5526;42.070;24.752;2023-05-02T03:23:57;99495.13;;;11.33;100.00
10948;BME280;5526;42.070;24.752;2023-05-02T03:26:24;99503.31;;;11.36;100.00
10948;BME280;5526;42.070;24.752;2023-05-02T03:28:52;99508.75;;;11.51;100.00
10948;BME280;5526;42.070;24.752;2023-05-02T03:31:19;99510.56;;;11.67;100.00
10948;BME280;5526;42.070;24.752;2023-05-02T03:33:46;99512.75;;;11.75;100.00
10948;BME280;5526;42.070;24.752;2023-05-02T03:36:14;99516.56;;;11.89;100.00
10948;BME280;5526;42.070;24.752;2023-05-02T03:38:44;99523.03;;;12.03;100.00
10948;BME280;5526;42.070;24.752;2023-05-02T03:41:11;99522.06;;;12.09;100.00
10948;BME280;5526;42.070;24.752;2023-05-02T03:43:39;99516.97;;;12.03;100.00
10948;BME280;5526;42.070;24.752;2023-05-02T03:46:07;99530.25;;;12.13;100.00
10948;BME280;5526;42.070;24.752;2023-05-02T03:48:36;99535.13;;;12.26;100.00
10948;BME280;5526;42.070;24.752;2023-05-02T03:51:04;99531.53;;;12.37;100.00
10948;BME280;5526;42.070;24.752;2023-05-02T03:53:32;99533.91;;;12.38;100.00
10948;BME280;5526;42.070;24.752;2023-05-02T03:56:01;99536.94;;;12.52;100.00
10948;BME280;5526;42.070;24.752;2023-05-02T03:58:28;99543.63;;;12.64;100.00
10948;BME280;5526;42.070;24.752;2023-05-02T04:00:55;99536.00;;;12.68;100.00
10948;BME280;5526;42.070;24.752;2023-05-02T04:03:22;99539.69;;;12.67;100.00
10948;BME280;5526;42.070;24.752;2023-05-02T04:05:50;99543.78;;;12.53;100.00
10948;BME280;5526;42.070;24.752;2023-05-02T04:08:17;99545.28;;;12.39;100.00
10948;BME280;5526;42.070;24.752;2023-05-02T04:10:49;99537.63;;;12.42;100.00
10948;BME280;5526;42.070;24.752;2023-05-02T04:13:18;99550.22;;;12.62;100.00
10948;BME280;5526;42.070;24.752;2023-05-02T04:15:45;99551.31;;;12.66;100.00
10948;BME280;5526;42.070;24.752;2023-05-02T04:18:12;99562.03;;;12.54;100.00
10948;BME280;5526;42.070;24.752;2023-05-02T04:20:41;99556.78;;;12.59;100.00
10948;BME280;5526;42.070;24.752;2023-05-02T04:23:09;99529.72;;;12.42;100.00
10948;BME280;5526;42.070;24.752;2023-05-02T04:25:36;99568.31;;;12.85;100.00
10948;BME280;5526;42.070;24.752;2023-05-02T04:28:04;99553.88;;;12.92;100.00
10948;BME280;5526;42.070;24.752;2023-05-02T04:30:32;99564.34;;;13.19;100.00
10948;BME280;5526;42.070;24.752;2023-05-02T04:32:59;99570.44;;;13.20;100.00
10948;BME280;5526;42.070;24.752;2023-05-02T04:35:27;99567.47;;;13.11;100.00
10948;BME280;5526;42.070;24.752;2023-05-02T04:37:54;99576.25;;;13.22;100.00
10948;BME280;5526;42.070;24.752;2023-05-02T04:40:21;99567.72;;;13.05;100.00
10948;BME280;5526;42.070;24.752;2023-05-02T04:42:48;99559.81;;;13.10;100.00
10948;BME280;5526;42.070;24.752;2023-05-02T04:45:15;99571.56;;;12.97;100.00
10948;BME280;5526;42.070;24.752;2023-05-02T04:47:44;99562.66;;;13.03;100.00
10948;BME280;5526;42.070;24.752;2023-05-02T04:50:11;99557.41;;;13.08;100.00
10948;BME280;5526;42.070;24.752;2023-05-02T04:52:38;99570.81;;;13.38;98.20
10948;BME280;5526;42.070;24.752;2023-05-02T04:55:07;99570.28;;;13.41;98.79
10948;BME280;5526;42.070;24.752;2023-05-02T04:57:34;99577.16;;;13.37;98.39
10948;BME280;5526;42.070;24.752;2023-05-02T05:00:01;99558.16;;;13.45;98.67
10948;BME280;5526;42.070;24.752;2023-05-02T05:02:28;99567.22;;;13.64;98.72
10948;BME280;5526;42.070;24.752;2023-05-02T05:04:57;99574.16;;;13.90;97.23
10948;BME280;5526;42.070;24.752;2023-05-02T05:07:24;99571.81;;;14.09;96.40
10948;BME280;5526;42.070;24.752;2023-05-02T05:09:51;99574.28;;;14.45;94.35
10948;BME280;5526;42.070;24.752;2023-05-02T05:12:18;99567.94;;;14.41;94.56
10948;BME280;5526;42.070;24.752;2023-05-02T05:14:45;99576.97;;;14.50;94.49
10948;BME280;5526;42.070;24.752;2023-05-02T05:17:12;99577.22;;;14.74;93.77
10948;BME280;5526;42.070;24.752;2023-05-02T05:19:39;99589.41;;;15.00;92.42
10948;BME280;5526;42.070;24.752;2023-05-02T05:22:07;99583.78;;;15.21;92.51
10948;BME280;5526;42.070;24.752;2023-05-02T05:24:35;99590.38;;;15.44;91.35
10948;BME280;5526;42.070;24.752;2023-05-02T05:27:02;99584.88;;;14.95;93.54
10948;BME280;5526;42.070;24.752;2023-05-02T05:29:30;99585.91;;;15.04;92.49
10948;BME280;5526;42.070;24.752;2023-05-02T05:31:57;99589.59;;;15.48;90.52
10948;BME280;5526;42.070;24.752;2023-05-02T05:34:24;99566.91;;;15.76;87.98
10948;BME280;5526;42.070;24.752;2023-05-02T05:36:52;99593.88;;;15.98;87.25
10948;BME280;5526;42.070;24.752;2023-05-02T05:39:20;99592.34;;;15.87;86.62
10948;BME280;5526;42.070;24.752;2023-05-02T05:41:48;99591.09;;;15.69;86.51
10948;BME280;5526;42.070;24.752;2023-05-02T05:44:16;99604.94;;;16.15;84.30
10948;BME280;5526;42.070;24.752;2023-05-02T05:46:44;99597.03;;;16.00;84.39
10948;BME280;5526;42.070;24.752;2023-05-02T05:49:11;99603.66;;;16.07;83.75
10948;BME280;5526;42.070;24.752;2023-05-02T05:51:38;99603.38;;;16.04;81.58
10948;BME280;5526;42.070;24.752;2023-05-02T05:54:05;99597.41;;;15.83;81.32
10948;BME280;5526;42.070;24.752;2023-05-02T05:56:34;99606.50;;;16.16;79.11
10948;BME280;5526;42.070;24.752;2023-05-02T05:59:01;99610.22;;;16.63;76.69
10948;BME280;5526;42.070;24.752;2023-05-02T06:01:28;99609.56;;;16.43;76.15
10948;BME280;5526;42.070;24.752;2023-05-02T06:03:55;99610.47;;;16.67;74.52
10948;BME280;5526;42.070;24.752;2023-05-02T06:06:23;99611.28;;;16.62;74.32
10948;BME280;5526;42.070;24.752;2023-05-02T06:08:51;99614.22;;;16.94;74.19
10948;BME280;5526;42.070;24.752;2023-05-02T06:11:18;99618.44;;;16.67;74.22
10948;BME280;5526;42.070;24.752;2023-05-02T06:13:47;99607.13;;;17.14;72.91
10948;BME280;5526;42.070;24.752;2023-05-02T06:16:14;99615.09;;;17.14;72.25
10948;BME280;5526;42.070;24.752;2023-05-02T06:18:41;99625.22;;;17.40;70.53
10948;BME280;5526;42.070;24.752;2023-05-02T06:21:08;99615.22;;;18.40;65.68
10948;BME280;5526;42.070;24.752;2023-05-02T06:23:35;99600.16;;;18.67;63.04
10948;BME280;5526;42.070;24.752;2023-05-02T06:26:03;99612.75;;;18.25;65.22
10948;BME280;5526;42.070;24.752;2023-05-02T06:28:30;99618.31;;;18.47;65.23
10948;BME280;5526;42.070;24.752;2023-05-02T06:31:00;99614.56;;;18.48;65.15
10948;BME280;5526;42.070;24.752;2023-05-02T06:33:28;99614.84;;;18.46;64.99
10948;BME280;5526;42.070;24.752;2023-05-02T06:35:55;99615.13;;;18.45;65.09
10948;BME280;5526;42.070;24.752;2023-05-02T06:38:22;99606.38;;;18.44;65.50
10948;BME280;5526;42.070;24.752;2023-05-02T06:40:50;99612.56;;;18.40;65.48
10948;BME280;5526;42.070;24.752;2023-05-02T06:43:17;99603.00;;;18.15;65.64
10948;BME280;5526;42.070;24.752;2023-05-02T06:45:45;99605.94;;;18.37;64.96
10948;BME280;5526;42.070;24.752;2023-05-02T06:48:13;99609.78;;;18.26;65.42
10948;BME280;5526;42.070;24.752;2023-05-02T06:50:41;99602.75;;;18.86;63.96
10948;BME280;5526;42.070;24.752;2023-05-02T06:53:08;99601.06;;;20.16;57.00
10948;BME280;5526;42.070;24.752;2023-05-02T06:55:35;99591.59;;;19.56;59.35
10948;BME280;5526;42.070;24.752;2023-05-02T06:58:02;99597.97;;;19.47;60.82
10948;BME280;5526;42.070;24.752;2023-05-02T07:00:29;99595.53;;;20.13;59.29
10948;BME280;5526;42.070;24.752;2023-05-02T07:02:55;99594.75;;;20.12;59.04
10948;BME280;5526;42.070;24.752;2023-05-02T07:05:24;99598.28;;;20.08;58.00
10948;BME280;5526;42.070;24.752;2023-05-02T07:07:51;99598.53;;;19.98;58.38
10948;BME280;5526;42.070;24.752;2023-05-02T07:10:18;99596.31;;;20.00;57.10
10948;BME280;5526;42.070;24.752;2023-05-02T07:12:45;99598.72;;;19.88;58.08
10948;BME280;5526;42.070;24.752;2023-05-02T07:15:12;99594.19;;;21.04;54.92
10948;BME280;5526;42.070;24.752;2023-05-02T07:17:41;99589.88;;;20.50;56.82
10948;BME280;5526;42.070;24.752;2023-05-02T07:20:09;99598.28;;;20.08;57.73
10948;BME280;5526;42.070;24.752;2023-05-02T07:22:38;99591.66;;;20.19;56.97
10948;BME280;5526;42.070;24.752;2023-05-02T07:25:05;99597.06;;;20.41;56.38
10948;BME280;5526;42.070;24.752;2023-05-02T07:27:32;99598.47;;;20.25;56.13
10948;BME280;5526;42.070;24.752;2023-05-02T07:29:59;99602.94;;;21.18;50.85
10948;BME280;5526;42.070;24.752;2023-05-02T07:32:26;99591.59;;;21.21;50.52
10948;BME280;5526;42.070;24.752;2023-05-02T07:34:53;99598.22;;;20.70;51.36
10948;BME280;5526;42.070;24.752;2023-05-02T07:37:20;99588.78;;;20.73;50.21
10948;BME280;5526;42.070;24.752;2023-05-02T07:39:49;99593.22;;;20.55;49.75
10948;BME280;5526;42.070;24.752;2023-05-02T07:42:16;99581.41;;;20.34;50.37
10948;BME280;5526;42.070;24.752;2023-05-02T07:44:42;99580.97;;;20.05;51.16
10948;BME280;5526;42.070;24.752;2023-05-02T07:47:10;99583.41;;;20.29;50.33
10948;BME280;5526;42.070;24.752;2023-05-02T07:49:37;99587.31;;;20.45;49.45
10948;BME280;5526;42.070;24.752;2023-05-02T07:52:04;99572.22;;;20.27;49.58
10948;BME280;5526;42.070;24.752;2023-05-02T07:54:31;99581.19;;;20.44;49.33
10948;BME280;5526;42.070;24.752;2023-05-02T07:56:59;99574.09;;;20.26;48.84
10948;BME280;5526;42.070;24.752;2023-05-02T07:59:28;99572.06;;;20.45;48.68
10948;BME280;5526;42.070;24.752;2023-05-02T08:01:55;99575.66;;;20.41;48.20
10948;BME280;5526;42.070;24.752;2023-05-02T08:04:23;99564.41;;;21.36;43.20
10948;BME280;5526;42.070;24.752;2023-05-02T08:06:49;99558.34;;;20.91;44.71
10948;BME280;5526;42.070;24.752;2023-05-02T08:09:17;99554.84;;;20.82;45.18
10948;BME280;5526;42.070;24.752;2023-05-02T08:11:43;99557.28;;;20.92;44.43
10948;BME280;5526;42.070;24.752;2023-05-02T08:14:12;99560.78;;;21.01;44.77
10948;BME280;5526;42.070;24.752;2023-05-02T08:16:39;99560.41;;;21.16;44.10
10948;BME280;5526;42.070;24.752;2023-05-02T08:19:06;99570.16;;;21.21;44.43
10948;BME280;5526;42.070;24.752;2023-05-02T08:21:34;99554.84;;;21.04;44.10
10948;BME280;5526;42.070;24.752;2023-05-02T08:24:01;99561.72;;;21.36;43.94
10948;BME280;5526;42.070;24.752;2023-05-02T08:26:28;99562.03;;;21.34;44.75
10948;BME280;5526;42.070;24.752;2023-05-02T08:28:55;99558.91;;;21.80;44.80
10948;BME280;5526;42.070;24.752;2023-05-02T08:31:23;99540.28;;;22.00;44.45
10948;BME280;5526;42.070;24.752;2023-05-02T08:33:50;99550.09;;;22.30;43.79
10948;BME280;5526;42.070;24.752;2023-05-02T08:36:17;99541.88;;;22.35;43.01
10948;BME280;5526;42.070;24.752;2023-05-02T08:38:45;99529.41;;;22.39;43.01
10948;BME280;5526;42.070;24.752;2023-05-02T08:41:13;99532.09;;;22.14;41.31
10948;BME280;5526;42.070;24.752;2023-05-02T08:43:41;99527.03;;;22.46;41.31
10948;BME280;5526;42.070;24.752;2023-05-02T08:46:09;99526.91;;;22.43;37.41
10948;BME280;5526;42.070;24.752;2023-05-02T08:48:39;99506.56;;;22.96;35.32
10948;BME280;5526;42.070;24.752;2023-05-02T08:51:08;99508.56;;;22.36;35.00
10948;BME280;5526;42.070;24.752;2023-05-02T08:53:36;99516.19;;;22.17;36.36
10948;BME280;5526;42.070;24.752;2023-05-02T08:56:04;99526.59;;;22.10;36.68
10948;BME280;5526;42.070;24.752;2023-05-02T08:58:32;99522.00;;;22.28;36.03
10948;BME280;5526;42.070;24.752;2023-05-02T09:01:01;99512.66;;;22.68;35.14
10948;BME280;5526;42.070;24.752;2023-05-02T09:03:30;99512.47;;;22.81;34.45
10948;BME280;5526;42.070;24.752;2023-05-02T09:06:06;99502.72;;;22.68;32.70
10948;BME280;5526;42.070;24.752;2023-05-02T09:08:34;99502.06;;;22.71;32.78
10948;BME280;5526;42.070;24.752;2023-05-02T09:11:01;99494.22;;;22.41;32.62
10948;BME280;5526;42.070;24.752;2023-05-02T09:13:33;99486.06;;;22.12;32.04
10948;BME280;5526;42.070;24.752;2023-05-02T09:16:02;99483.22;;;21.91;33.73
10948;BME280;5526;42.070;24.752;2023-05-02T09:18:30;99485.25;;;22.28;33.68
10948;BME280;5526;42.070;24.752;2023-05-02T09:20:58;99479.41;;;22.26;32.49
10948;BME280;5526;42.070;24.752;2023-05-02T09:23:35;99478.47;;;22.22;32.56
10948;BME280;5526;42.070;24.752;2023-05-02T09:26:10;99462.06;;;22.24;31.19
10948;BME280;5526;42.070;24.752;2023-05-02T09:28:39;99457.81;;;22.48;31.22
10948;BME280;5526;42.070;24.752;2023-05-02T09:31:08;99462.88;;;22.07;30.58
10948;BME280;5526;42.070;24.752;2023-05-02T09:33:35;99458.47;;;22.11;30.25
10948;BME280;5526;42.070;24.752;2023-05-02T09:36:03;99455.59;;;22.25;29.89
10948;BME280;5526;42.070;24.752;2023-05-02T09:38:31;99446.47;;;22.00;30.34
10948;BME280;5526;42.070;24.752;2023-05-02T09:41:00;99444.34;;;22.57;30.90
10948;BME280;5526;42.070;24.752;2023-05-02T09:43:28;99461.28;;;22.86;30.47
10948;BME280;5526;42.070;24.752;2023-05-02T09:45:57;99449.38;;;23.04;30.18
10948;BME280;5526;42.070;24.752;2023-05-02T09:48:25;99434.53;;;22.98;29.37
10948;BME280;5526;42.070;24.752;2023-05-02T09:50:53;99433.78;;;22.52;30.50
10948;BME280;5526;42.070;24.752;2023-05-02T09:53:20;99436.28;;;22.65;29.75
10948;BME280;5526;42.070;24.752;2023-05-02T09:55:47;99441.81;;;22.43;29.83
10948;BME280;5526;42.070;24.752;2023-05-02T09:58:22;99436.28;;;23.32;29.55
10948;BME280;5526;42.070;24.752;2023-05-02T10:00:50;99432.69;;;22.53;30.08
10948;BME280;5526;42.070;24.752;2023-05-02T10:03:18;99433.63;;;22.94;30.01
10948;BME280;5526;42.070;24.752;2023-05-02T10:05:46;99434.00;;;23.13;29.49
10948;BME280;5526;42.070;24.752;2023-05-02T10:08:15;99424.31;;;22.92;30.13
10948;BME280;5526;42.070;24.752;2023-05-02T10:10:47;99435.19;;;22.58;30.05
10948;BME280;5526;42.070;24.752;2023-05-02T10:13:18;99435.34;;;22.61;30.94
10948;BME280;5526;42.070;24.752;2023-05-02T10:15:50;99425.09;;;23.50;29.35
10948;BME280;5526;42.070;24.752;2023-05-02T10:18:23;99422.56;;;22.96;31.06
10948;BME280;5526;42.070;24.752;2023-05-02T10:20:55;99427.03;;;23.21;30.16
10948;BME280;5526;42.070;24.752;2023-05-02T10:23:25;99412.69;;;23.37;29.64
10948;BME280;5526;42.070;24.752;2023-05-02T10:25:53;99416.06;;;23.34;29.89
10948;BME280;5526;42.070;24.752;2023-05-02T10:28:20;99426.25;;;23.20;30.68
10948;BME280;5526;42.070;24.752;2023-05-02T10:30:49;99405.63;;;23.53;30.42
10948;BME280;5526;42.070;24.752;2023-05-02T10:33:16;99415.72;;;23.56;30.81
10948;BME280;5526;42.070;24.752;2023-05-02T10:35:45;99405.38;;;23.17;30.61
10948;BME280;5526;42.070;24.752;2023-05-02T10:38:15;99405.25;;;23.14;31.14
10948;BME280;5526;42.070;24.752;2023-05-02T10:40:49;99393.69;;;23.22;30.29
10948;BME280;5526;42.070;24.752;2023-05-02T10:43:25;99389.47;;;23.12;30.41
10948;BME280;5526;42.070;24.752;2023-05-02T10:45:54;99392.78;;;23.38;29.83
10948;BME280;5526;42.070;24.752;2023-05-02T10:48:22;99353.22;;;23.47;29.85
10948;BME280;5526;42.070;24.752;2023-05-02T10:50:51;99401.63;;;23.10;30.58
10948;BME280;5526;42.070;24.752;2023-05-02T10:53:22;99378.81;;;22.66;29.72
10948;BME280;5526;42.070;24.752;2023-05-02T10:56:11;99389.66;;;23.07;29.42
10948;BME280;5526;42.070;24.752;2023-05-02T10:58:40;99390.09;;;23.38;28.56
10948;BME280;5526;42.070;24.752;2023-05-02T11:01:33;99383.25;;;23.61;28.46
10948;BME280;5526;42.070;24.752;2023-05-02T11:04:03;99382.69;;;23.88;27.93
10948;BME280;5526;42.070;24.752;2023-05-02T11:06:31;99389.53;;;24.06;28.11
10948;BME280;5526;42.070;24.752;2023-05-02T11:09:30;99390.81;;;24.33;28.19
10948;BME280;5526;42.070;24.752;2023-05-02T11:11:58;99388.63;;;25.07;26.35
10948;BME280;5526;42.070;24.752;2023-05-02T11:14:45;99388.56;;;24.23;27.30
10948;BME280;5526;42.070;24.752;2023-05-02T11:17:15;99378.16;;;23.68;27.26
10948;BME280;5526;42.070;24.752;2023-05-02T11:25:36;99370.47;;;23.17;28.11
10948;BME280;5526;42.070;24.752;2023-05-02T11:28:06;99377.44;;;23.39;27.92
10948;BME280;5526;42.070;24.752;2023-05-02T11:30:42;99380.88;;;23.27;28.48
10948;BME280;5526;42.070;24.752;2023-05-02T11:33:15;99364.16;;;23.42;28.28
10948;BME280;5526;42.070;24.752;2023-05-02T11:35:43;99371.59;;;23.57;28.88
10948;BME280;5526;42.070;24.752;2023-05-02T11:38:12;99377.06;;;23.28;28.52
10948;BME280;5526;42.070;24.752;2023-05-02T11:40:46;99369.53;;;23.42;29.22
10948;BME280;5526;42.070;24.752;2023-05-02T11:43:17;99365.34;;;23.33;29.20
10948;BME280;5526;42.070;24.752;2023-05-02T11:45:46;99360.72;;;23.74;28.68
10948;BME280;5526;42.070;24.752;2023-05-02T11:48:16;99359.25;;;23.97;28.01
10948;BME280;5526;42.070;24.752;2023-05-02T11:50:45;99359.75;;;24.23;28.09
10948;BME280;5526;42.070;24.752;2023-05-02T11:53:14;99352.06;;;24.58;28.01
10948;BME280;5526;42.070;24.752;2023-05-02T11:55:45;99340.91;;;24.11;27.79
10948;BME280;5526;42.070;24.752;2023-05-02T11:58:15;99342.50;;;24.24;29.20
10948;BME280;5526;42.070;24.752;2023-05-02T12:00:43;99334.84;;;24.02;29.49
10948;BME280;5526;42.070;24.752;2023-05-02T12:03:26;99328.84;;;24.78;26.47
10948;BME280;5526;42.070;24.752;2023-05-02T12:05:54;99332.41;;;24.94;27.72
10948;BME280;5526;42.070;24.752;2023-05-02T12:08:23;99300.47;;;24.20;26.62
10948;BME280;5526;42.070;24.752;2023-05-02T12:10:52;99321.19;;;24.31;27.46
10948;BME280;5526;42.070;24.752;2023-05-02T12:13:22;99319.00;;;24.70;27.12
10948;BME280;5526;42.070;24.752;2023-05-02T12:15:50;99321.06;;;25.00;26.49
10948;BME280;5526;42.070;24.752;2023-05-02T12:18:18;99302.47;;;24.59;27.16
10948;BME280;5526;42.070;24.752;2023-05-02T12:20:49;99308.75;;;24.27;27.90
10948;BME280;5526;42.070;24.752;2023-05-02T12:23:18;99313.13;;;24.19;27.83
10948;BME280;5526;42.070;24.752;2023-05-02T12:25:46;99314.00;;;24.23;27.73
10948;BME280;5526;42.070;24.752;2023-05-02T12:28:16;99301.25;;;24.32;27.44
10948;BME280;5526;42.070;24.752;2023-05-02T12:30:46;99296.66;;;24.33;27.18
10948;BME280;5526;42.070;24.752;2023-05-02T12:33:13;99288.34;;;24.14;27.26
10948;BME280;5526;42.070;24.752;2023-05-02T12:35:41;99295.72;;;24.05;27.79
10948;BME280;5526;42.070;24.752;2023-05-02T12:38:13;99280.19;;;25.10;25.84
10948;BME280;5526;42.070;24.752;2023-05-02T12:40:50;99272.44;;;24.45;26.58
10948;BME280;5526;42.070;24.752;2023-05-02T12:43:18;99266.59;;;24.55;27.12
10948;BME280;5526;42.070;24.752;2023-05-02T12:45:46;99260.56;;;24.58;26.72
10948;BME280;5526;42.070;24.752;2023-05-02T12:48:18;99250.00;;;24.65;27.01
10948;BME280;5526;42.070;24.752;2023-05-02T12:50:45;99241.03;;;24.49;26.56
10948;BME280;5526;42.070;24.752;2023-05-02T12:53:14;99239.75;;;24.83;26.24
10948;BME280;5526;42.070;24.752;2023-05-02T12:55:41;99250.09;;;25.48;25.02
10948;BME280;5526;42.070;24.752;2023-05-02T12:58:10;99245.69;;;25.28;25.94
10948;BME280;5526;42.070;24.752;2023-05-02T13:00:39;99245.09;;;24.95;25.88
10948;BME280;5526;42.070;24.752;2023-05-02T13:03:08;99247.19;;;25.84;25.38
10948;BME280;5526;42.070;24.752;2023-05-02T13:05:35;99229.41;;;24.97;25.67
10948;BME280;5526;42.070;24.752;2023-05-02T13:08:02;99242.53;;;24.98;26.44
10948;BME280;5526;42.070;24.752;2023-05-02T13:10:32;99237.69;;;25.04;25.86
10948;BME280;5526;42.070;24.752;2023-05-02T13:12:58;99241.06;;;25.01;25.88